MiSS Karli — WDF5923 — position and weather

sailwx.info

Track history (hours):
 
Tides and Currents Weather Stations Pressure Air Temp Water Temp Dewpoint Dewpoint Depression Visibility Wind Speed Wind Dir Waves Ship Positions

MiSS Karli

Owner: Crosby Marine Transportation LLC, Golden Meadow, LA. More information available from US FCC via Universal Licensing System and Coast Guard Vessel Documentation Center.

Last reported at 2017-Nov-08 19:04 UTC. Time now 2017-Nov-18 08:49 UTC.
Position N 29°32' W 094°54'.
Warning: this ship's position is 9 days out of date.

Length 20 m; draft 8.5 m.

Type: Towing. MMSI: 367468730.

Date/timePositionNaut miles runAvg speedWind from/ knotsBaromVisibWave heightAir tempDewpointWater temp
2017-Nov-08 19:04N 29°32' W 094°54'3 7.0
2017-Nov-08 18:41N 29°34' W 094°56'1 6.7
2017-Nov-08 18:28N 29°36' W 094°57'3 7.0
2017-Nov-08 18:00N 29°39' W 094°58'4 7.1
2017-Nov-08 17:24N 29°42' W 095°01'6 0.3
2017-Nov-08 00:49N 29°46' W 095°06'2 0.1
2017-Nov-07 11:22N 29°44' W 095°07'7 0.6
2017-Nov-07 00:53N 29°43' W 095°15'  
2017-Nov-03 17:02N 29°46' W 095°04'1 5.1
2017-Nov-03 16:47N 29°45' W 095°04'2 4.9
2017-Nov-03 16:24N 29°44' W 095°02'2 4.5
2017-Nov-03 16:00N 29°42' W 095°01'2 4.6
2017-Nov-03 15:30N 29°41' W 094°59'3 5.4
2017-Nov-03 15:00N 29°38' W 094°58'3 5.5
2017-Nov-03 14:30N 29°36' W 094°56'3 5.7
2017-Nov-03 14:00N 29°33' W 094°55'3 5.5
2017-Nov-03 13:30N 29°31' W 094°53'  
2017-Oct-31 15:45N 29°34' W 094°56'1 6.1
2017-Oct-31 15:30N 29°35' W 094°56'3 6.2
2017-Oct-31 15:00N 29°38' W 094°58'3 6.7
2017-Oct-31 14:30N 29°41' W 094°59'  
Track history (hours):
 
Tides and Currents Weather Stations Pressure Air Temp Water Temp Dewpoint Dewpoint Depression Visibility Wind Speed Wind Dir Waves Ship Positions

MiSS Karli

Owner: Crosby Marine Transportation LLC, Golden Meadow, LA. More information available from US FCC via Universal Licensing System and Coast Guard Vessel Documentation Center.

Last reported at 2017-Nov-08 19:04 UTC. Time now 2017-Nov-18 08:49 UTC.
Position N 29°32' W 094°54'.
Warning: this ship's position is 9 days out of date.

Length 20 m; draft 8.5 m.

Type: Towing. MMSI: 367468730.

Date/timePositionNaut miles runAvg speedWind from/ knotsBaromVisibWave heightAir tempDewpointWater temp
2017-Nov-08 19:04N 29°32' W 094°54'3 7.0
2017-Nov-08 18:41N 29°34' W 094°56'1 6.7
2017-Nov-08 18:28N 29°36' W 094°57'3 7.0
2017-Nov-08 18:00N 29°39' W 094°58'4 7.1
2017-Nov-08 17:24N 29°42' W 095°01'6 0.3
2017-Nov-08 00:49N 29°46' W 095°06'2 0.1
2017-Nov-07 11:22N 29°44' W 095°07'7 0.6
2017-Nov-07 00:53N 29°43' W 095°15'  
2017-Nov-03 17:02N 29°46' W 095°04'1 5.1
2017-Nov-03 16:47N 29°45' W 095°04'2 4.9
2017-Nov-03 16:24N 29°44' W 095°02'2 4.5
2017-Nov-03 16:00N 29°42' W 095°01'2 4.6
2017-Nov-03 15:30N 29°41' W 094°59'3 5.4
2017-Nov-03 15:00N 29°38' W 094°58'3 5.5
2017-Nov-03 14:30N 29°36' W 094°56'3 5.7
2017-Nov-03 14:00N 29°33' W 094°55'3 5.5
2017-Nov-03 13:30N 29°31' W 094°53'  
2017-Oct-31 15:45N 29°34' W 094°56'1 6.1
2017-Oct-31 15:30N 29°35' W 094°56'3 6.2
2017-Oct-31 15:00N 29°38' W 094°58'3 6.7
2017-Oct-31 14:30N 29°41' W 094°59'  

Dump ship's entire track history